LFQQ/LIL METAR and TAF weather

Enter ICAO airport designator
Station Type Date Time Source
LFQQ METAR 2021/09/23 17:00 UTC NOAA

LFQQ 231700Z AUTO 26011KT 9999 FEW029 OVC046 19/13 Q1019 NOSIG


Station Type Date Time Source
LFQQ Decoded METAR 2021/09/23 17:00 UTC NOAA

Lille, France (LFQQ) 50-34N 003-06E 52M
Sep 23, 2021 - 01:00 PM EDT / 2021.09.23 1700 UTC
Wind: from the W (260 degrees) at 13 MPH (11 KT):0
Visibility: greater than 7 mile(s):0
Sky conditions: overcast
Temperature: 66 F (19 C)
Dew Point: 55 F (13 C)
Relative Humidity: 68%
Pressure (altimeter): 30.09 in. Hg (1019 hPa)
ob: LFQQ 231700Z AUTO 26011KT 9999 FEW029 OVC046 19/13 Q1019 NOSIG
cycle: 17

Station Type Date Time Source
LFQQ TAF 2021/09/23 18:21 UTC NOAA

TAF LFQQ 231700Z 2318/2424 25008KT 9999 SCT015 BKN030
TEMPO 2323/2410 3000 DZRA BR BKN007 OVC013

Example: see airport list